createdAt,value
2018-10-06T00:00:03.175Z,20.60
2018-10-06T00:00:40.672Z,20.60
2018-10-06T00:01:18.241Z,20.60
2018-10-06T00:01:55.722Z,20.60
2018-10-06T00:02:32.894Z,20.60
2018-10-06T00:03:10.293Z,20.60
2018-10-06T00:03:47.674Z,20.50
2018-10-06T00:04:25.229Z,20.60
2018-10-06T00:05:02.713Z,20.60
2018-10-06T00:05:40.170Z,20.50
2018-10-06T00:06:17.389Z,20.60
2018-10-06T00:06:54.704Z,20.60
2018-10-06T00:07:32.013Z,20.60
2018-10-06T00:08:09.270Z,20.50
2018-10-06T00:08:46.535Z,20.50
2018-10-06T00:09:23.854Z,20.50
2018-10-06T00:10:01.337Z,20.50
2018-10-06T00:10:38.776Z,20.50
2018-10-06T00:11:15.977Z,20.50
2018-10-06T00:11:53.367Z,20.50
2018-10-06T00:12:30.934Z,20.60
2018-10-06T00:13:08.356Z,20.60
2018-10-06T00:13:45.830Z,20.50
2018-10-06T00:14:23.249Z,20.50
2018-10-06T00:15:00.691Z,20.50
2018-10-06T00:15:38.011Z,20.60
2018-10-06T00:16:15.277Z,20.50
2018-10-06T00:16:52.808Z,20.50
2018-10-06T00:17:30.218Z,20.60
2018-10-06T00:18:07.538Z,20.60
2018-10-06T00:18:45.047Z,20.50
2018-10-06T00:19:22.530Z,20.60
2018-10-06T00:19:59.884Z,20.60
2018-10-06T00:20:37.367Z,20.60
2018-10-06T00:21:14.809Z,20.60
2018-10-06T00:21:52.279Z,20.50
2018-10-06T00:22:29.569Z,20.60
2018-10-06T00:23:07.128Z,20.50
2018-10-06T00:23:44.588Z,20.50
2018-10-06T00:24:22.069Z,20.50
2018-10-06T00:24:59.576Z,20.60
2018-10-06T00:25:37.089Z,20.50
2018-10-06T00:26:14.300Z,20.50
2018-10-06T00:26:51.589Z,20.50
2018-10-06T00:27:28.889Z,20.50
2018-10-06T00:28:06.269Z,20.50
2018-10-06T00:28:43.631Z,20.50
2018-10-06T00:29:20.998Z,20.50
2018-10-06T00:29:58.549Z,20.50
2018-10-06T00:30:35.892Z,20.50
2018-10-06T00:31:13.621Z,20.50
2018-10-06T00:31:50.891Z,20.50
2018-10-06T00:32:28.152Z,20.50
2018-10-06T00:33:05.540Z,20.50
2018-10-06T00:33:43.002Z,20.50
2018-10-06T00:34:20.552Z,20.50
2018-10-06T00:34:58.031Z,20.50
2018-10-06T00:35:35.616Z,20.50
2018-10-06T00:36:13.070Z,20.50
2018-10-06T00:36:50.245Z,20.60
2018-10-06T00:37:27.456Z,20.50
2018-10-06T00:38:04.923Z,20.50
2018-10-06T00:38:42.322Z,20.50
2018-10-06T00:39:19.721Z,20.50
2018-10-06T00:39:57.133Z,20.60
2018-10-06T00:40:34.467Z,20.50
2018-10-06T00:41:11.924Z,20.50
2018-10-06T00:41:49.149Z,20.50
2018-10-06T00:42:30.672Z,20.50
2018-10-06T00:43:08.164Z,20.50
2018-10-06T00:43:45.591Z,20.50
2018-10-06T00:44:22.833Z,20.50
2018-10-06T00:45:00.283Z,20.50
2018-10-06T00:45:37.844Z,20.50
2018-10-06T00:46:15.294Z,20.50
2018-10-06T00:46:52.790Z,20.50
2018-10-06T00:47:30.273Z,20.50
2018-10-06T00:48:07.707Z,20.50
2018-10-06T00:48:45.188Z,20.50
2018-10-06T00:49:22.665Z,20.50
2018-10-06T00:50:00.074Z,20.50
2018-10-06T00:50:37.274Z,20.50
2018-10-06T00:51:14.694Z,20.50
2018-10-06T00:51:52.241Z,20.50
2018-10-06T00:52:29.643Z,20.50
2018-10-06T00:53:10.773Z,20.50
2018-10-06T00:53:47.973Z,20.50
2018-10-06T00:54:25.185Z,20.50
2018-10-06T00:55:02.464Z,20.50
2018-10-06T00:55:39.722Z,20.50
2018-10-06T00:56:17.210Z,20.50
2018-10-06T00:56:54.638Z,20.50
2018-10-06T00:57:32.014Z,20.50
2018-10-06T00:58:09.448Z,20.50
2018-10-06T00:58:46.734Z,20.50
2018-10-06T00:59:24.173Z,20.50
2018-10-06T01:00:01.430Z,20.50
2018-10-06T01:00:38.902Z,20.50
2018-10-06T01:01:16.123Z,20.50
2018-10-06T01:01:53.642Z,20.50
2018-10-06T01:02:31.115Z,20.50
2018-10-06T01:03:08.444Z,20.50
2018-10-06T01:03:45.793Z,20.50
2018-10-06T01:04:23.172Z,20.50
2018-10-06T01:05:00.691Z,20.50
2018-10-06T01:05:38.093Z,20.50
2018-10-06T01:06:15.479Z,20.50
2018-10-06T01:06:52.957Z,20.50
2018-10-06T01:07:30.452Z,20.50
2018-10-06T01:08:07.646Z,20.50
2018-10-06T01:08:44.840Z,20.50
2018-10-06T01:09:22.219Z,20.50
2018-10-06T01:09:59.797Z,20.50
2018-10-06T01:10:37.339Z,20.50
2018-10-06T01:11:14.690Z,20.50
2018-10-06T01:11:51.989Z,20.50
2018-10-06T01:12:29.538Z,20.50
2018-10-06T01:13:06.896Z,20.50
2018-10-06T01:13:44.416Z,20.50
2018-10-06T01:14:21.976Z,20.50
2018-10-06T01:14:59.364Z,20.50
2018-10-06T01:15:36.797Z,20.50
2018-10-06T01:16:13.985Z,20.50
2018-10-06T01:16:51.234Z,20.50
2018-10-06T01:17:28.629Z,20.50
2018-10-06T01:18:05.980Z,20.50
2018-10-06T01:18:43.380Z,20.50
2018-10-06T01:19:20.574Z,20.50
2018-10-06T01:20:01.733Z,20.50
2018-10-06T01:20:38.934Z,20.50
2018-10-06T01:21:16.198Z,20.50
2018-10-06T01:21:53.600Z,20.50
2018-10-06T01:22:30.903Z,20.50
2018-10-06T01:23:08.113Z,20.50
2018-10-06T01:23:45.552Z,20.50
2018-10-06T01:24:22.884Z,20.50
2018-10-06T01:25:00.271Z,20.50
2018-10-06T01:25:37.450Z,20.50
2018-10-06T01:26:14.880Z,20.50
2018-10-06T01:26:52.230Z,20.50
2018-10-06T01:27:29.690Z,20.50
2018-10-06T01:28:06.919Z,20.50
2018-10-06T01:28:44.430Z,20.50
2018-10-06T01:29:22.021Z,20.50
2018-10-06T01:29:59.460Z,20.50
2018-10-06T01:30:36.969Z,20.50
2018-10-06T01:31:14.211Z,20.50
2018-10-06T01:31:51.689Z,20.50
2018-10-06T01:32:28.921Z,20.50
2018-10-06T01:33:06.378Z,20.50
2018-10-06T01:33:43.867Z,20.50
2018-10-06T01:34:21.287Z,20.50
2018-10-06T01:34:58.467Z,20.50
2018-10-06T01:35:35.768Z,20.50
2018-10-06T01:36:13.255Z,20.50
2018-10-06T01:36:50.457Z,20.50
2018-10-06T01:37:27.707Z,20.50
2018-10-06T01:38:05.117Z,20.50
2018-10-06T01:38:42.436Z,20.50
2018-10-06T01:39:19.856Z,20.50
2018-10-06T01:39:57.060Z,20.50
2018-10-06T01:40:34.426Z,20.50
2018-10-06T01:41:11.861Z,20.50
2018-10-06T01:41:49.164Z,20.50
2018-10-06T01:42:26.541Z,20.50
2018-10-06T01:43:03.759Z,20.50
2018-10-06T01:43:41.005Z,20.50
2018-10-06T01:44:18.164Z,20.50
2018-10-06T01:44:55.390Z,20.50
2018-10-06T01:45:32.684Z,20.50
2018-10-06T01:46:10.088Z,20.50
2018-10-06T01:46:47.373Z,20.50
2018-10-06T01:47:24.856Z,20.50
2018-10-06T01:48:02.395Z,20.50
2018-10-06T01:48:39.874Z,20.50
2018-10-06T01:49:17.345Z,20.50
2018-10-06T01:49:54.845Z,20.50
2018-10-06T01:50:32.282Z,20.50
2018-10-06T01:51:09.695Z,20.50
2018-10-06T01:51:47.093Z,20.50
2018-10-06T01:52:24.518Z,20.50
2018-10-06T01:53:03.663Z,20.50
2018-10-06T01:53:41.010Z,20.50
2018-10-06T01:54:18.404Z,20.50
2018-10-06T01:54:55.644Z,20.50
2018-10-06T01:55:33.151Z,20.50
2018-10-06T01:56:10.560Z,20.50
2018-10-06T01:56:47.889Z,20.50
2018-10-06T01:57:25.160Z,20.50
2018-10-06T01:58:06.369Z,20.50
2018-10-06T01:58:44.090Z,20.50
2018-10-06T01:59:21.374Z,20.50
2018-10-06T01:59:58.649Z,20.50
2018-10-06T02:00:36.052Z,20.50
2018-10-06T02:01:13.418Z,20.50
2018-10-06T02:01:50.768Z,20.50
2018-10-06T02:02:28.313Z,20.50
2018-10-06T02:03:05.717Z,20.40
2018-10-06T02:03:46.257Z,20.50
2018-10-06T02:04:23.476Z,20.50
2018-10-06T02:05:00.879Z,20.50
2018-10-06T02:05:38.166Z,20.50
2018-10-06T02:06:15.487Z,20.50
2018-10-06T02:06:52.658Z,20.50
2018-10-06T02:07:30.012Z,20.50
2018-10-06T02:08:07.290Z,20.50
2018-10-06T02:09:30.941Z,20.50
2018-10-06T02:10:08.247Z,20.50
2018-10-06T02:10:45.710Z,20.50
2018-10-06T02:11:23.150Z,20.50
2018-10-06T02:12:00.391Z,20.50
2018-10-06T02:12:37.659Z,20.50
2018-10-06T02:13:14.941Z,20.50
2018-10-06T02:13:52.369Z,20.50
2018-10-06T02:14:29.609Z,20.50
2018-10-06T02:15:10.653Z,20.50
2018-10-06T02:15:48.129Z,20.50
2018-10-06T02:16:25.601Z,20.50
2018-10-06T02:17:03.114Z,20.50
2018-10-06T02:17:40.476Z,20.50
2018-10-06T02:18:17.799Z,20.50
2018-10-06T02:18:55.209Z,20.50
2018-10-06T02:19:32.570Z,20.50
2018-10-06T02:20:10.014Z,20.50
2018-10-06T02:20:47.372Z,20.50
2018-10-06T02:21:24.851Z,20.50
2018-10-06T02:22:02.380Z,20.50
2018-10-06T02:22:39.876Z,20.50
2018-10-06T02:23:17.214Z,20.50
2018-10-06T02:23:54.575Z,20.50
2018-10-06T02:24:31.801Z,20.50
2018-10-06T02:25:09.320Z,20.40
2018-10-06T02:25:46.872Z,20.50
2018-10-06T02:26:24.402Z,20.50
2018-10-06T02:27:01.853Z,20.50
2018-10-06T02:27:39.011Z,20.50
2018-10-06T02:28:16.252Z,20.50
2018-10-06T02:28:53.613Z,20.50
2018-10-06T02:29:30.922Z,20.50
2018-10-06T02:30:08.432Z,20.50
2018-10-06T02:30:45.894Z,20.50
2018-10-06T02:31:23.133Z,20.50
2018-10-06T02:32:00.660Z,20.50
2018-10-06T02:32:38.154Z,20.50
2018-10-06T02:33:15.613Z,20.50
2018-10-06T02:33:52.914Z,20.50
2018-10-06T02:34:30.257Z,20.50
2018-10-06T02:35:07.693Z,20.50
2018-10-06T02:35:45.032Z,20.50
2018-10-06T02:36:22.466Z,20.50
2018-10-06T02:36:59.883Z,20.50
2018-10-06T02:37:37.153Z,20.50
2018-10-06T02:38:14.565Z,20.50
2018-10-06T02:38:51.885Z,20.50
2018-10-06T02:39:29.235Z,20.50
2018-10-06T02:40:06.469Z,20.50
2018-10-06T02:40:44.148Z,20.50
2018-10-06T02:42:04.315Z,20.50
2018-10-06T02:42:41.808Z,20.50
2018-10-06T02:43:19.202Z,20.50
2018-10-06T02:43:56.424Z,20.50
2018-10-06T02:44:33.957Z,20.50
2018-10-06T02:45:11.319Z,20.50
2018-10-06T02:45:48.836Z,20.50
2018-10-06T02:46:26.150Z,20.50
2018-10-06T02:47:03.546Z,20.50
2018-10-06T02:47:40.843Z,20.50
2018-10-06T02:48:18.265Z,20.50
2018-10-06T02:48:55.764Z,20.40
2018-10-06T02:49:33.094Z,20.50
2018-10-06T02:50:10.514Z,20.50
2018-10-06T02:50:47.787Z,20.50
2018-10-06T02:51:25.385Z,20.50
2018-10-06T02:52:02.836Z,20.50
2018-10-06T02:52:40.204Z,20.50
2018-10-06T02:53:17.402Z,20.50
2018-10-06T02:53:54.675Z,20.50
2018-10-06T02:54:31.875Z,20.50
2018-10-06T02:55:09.104Z,20.50
2018-10-06T02:55:46.366Z,20.50
2018-10-06T02:56:23.806Z,20.40
2018-10-06T02:57:01.063Z,20.50
2018-10-06T02:57:38.467Z,20.50
2018-10-06T02:58:15.868Z,20.50
2018-10-06T02:58:53.044Z,20.50
2018-10-06T02:59:30.256Z,20.50
2018-10-06T03:00:48.538Z,20.50
2018-10-06T03:01:26.096Z,20.50
2018-10-06T03:02:03.583Z,20.50
2018-10-06T03:02:41.067Z,20.50
2018-10-06T03:03:18.514Z,20.50
2018-10-06T03:03:55.828Z,20.50
2018-10-06T03:04:33.175Z,20.50
2018-10-06T03:05:10.547Z,20.50
2018-10-06T03:06:30.546Z,20.50
2018-10-06T03:07:07.975Z,20.50
2018-10-06T03:07:45.527Z,20.50
2018-10-06T03:08:23.140Z,20.50
2018-10-06T03:09:00.428Z,20.50
2018-10-06T03:09:37.844Z,20.50
2018-10-06T03:10:15.378Z,20.50
2018-10-06T03:10:56.578Z,20.50
2018-10-06T03:11:33.977Z,20.50
2018-10-06T03:12:11.536Z,20.50
2018-10-06T03:12:48.996Z,20.50
2018-10-06T03:13:26.216Z,20.50
2018-10-06T03:14:03.688Z,20.50
2018-10-06T03:14:41.108Z,20.50
2018-10-06T03:15:18.537Z,20.50
2018-10-06T03:15:59.649Z,20.50
2018-10-06T03:16:36.875Z,20.50
2018-10-06T03:17:14.472Z,20.50
2018-10-06T03:17:51.768Z,20.50
2018-10-06T03:18:29.270Z,20.50
2018-10-06T03:19:06.475Z,20.50
2018-10-06T03:19:44.001Z,20.50
2018-10-06T03:20:21.292Z,20.50
2018-10-06T03:20:58.508Z,20.50
2018-10-06T03:21:36.019Z,20.50
2018-10-06T03:22:13.439Z,20.50
2018-10-06T03:22:50.908Z,20.50
2018-10-06T03:23:28.240Z,20.50
2018-10-06T03:24:05.680Z,20.50
2018-10-06T03:24:43.089Z,20.50
2018-10-06T03:25:20.529Z,20.50
2018-10-06T03:25:57.848Z,20.50
2018-10-06T03:26:35.319Z,20.50
2018-10-06T03:27:12.582Z,20.50
2018-10-06T03:27:50.003Z,20.50
2018-10-06T03:28:27.305Z,20.50
2018-10-06T03:29:04.751Z,20.50
2018-10-06T03:29:42.163Z,20.50
2018-10-06T03:30:19.398Z,20.50
2018-10-06T03:30:56.836Z,20.50
2018-10-06T03:31:34.107Z,20.50
2018-10-06T03:32:11.517Z,20.50
2018-10-06T03:32:48.835Z,20.50
2018-10-06T03:33:26.227Z,20.50
2018-10-06T03:34:03.451Z,20.50
2018-10-06T03:34:40.923Z,20.50
2018-10-06T03:35:18.445Z,20.50
2018-10-06T03:35:55.874Z,20.50
2018-10-06T03:36:33.220Z,20.50
2018-10-06T03:37:10.542Z,20.50
2018-10-06T03:37:47.977Z,20.50
2018-10-06T03:38:25.306Z,20.50
2018-10-06T03:39:02.648Z,20.50
2018-10-06T03:39:39.917Z,20.50
2018-10-06T03:40:17.189Z,20.50
2018-10-06T03:40:54.701Z,20.50
2018-10-06T03:41:32.228Z,20.50
2018-10-06T03:42:09.746Z,20.50
2018-10-06T03:42:47.186Z,20.40
2018-10-06T03:43:24.485Z,20.50
2018-10-06T03:44:01.797Z,20.50
2018-10-06T03:44:39.342Z,20.50
2018-10-06T03:45:16.845Z,20.50
2018-10-06T03:45:54.258Z,20.50
2018-10-06T03:46:31.699Z,20.50
2018-10-06T03:47:09.157Z,20.50
2018-10-06T03:47:46.432Z,20.50
2018-10-06T03:48:23.738Z,20.50
2018-10-06T03:49:01.008Z,20.50
2018-10-06T03:49:38.437Z,20.50
2018-10-06T03:50:15.936Z,20.50
2018-10-06T03:50:53.348Z,20.50
2018-10-06T03:52:12.603Z,20.50
2018-10-06T03:52:50.027Z,20.50
2018-10-06T03:53:27.528Z,20.40
2018-10-06T03:54:04.906Z,20.50
2018-10-06T03:54:42.317Z,20.50
2018-10-06T03:55:19.550Z,20.50
2018-10-06T03:55:57.090Z,20.50
2018-10-06T03:56:34.597Z,20.50
2018-10-06T03:57:15.959Z,20.40
2018-10-06T03:57:53.541Z,20.40
2018-10-06T03:58:30.969Z,20.50
2018-10-06T03:59:08.400Z,20.50
2018-10-06T03:59:45.677Z,20.40
2018-10-06T04:00:22.921Z,20.40
2018-10-06T04:01:00.159Z,20.50
2018-10-06T04:01:37.631Z,20.40
2018-10-06T04:02:18.841Z,20.50
2018-10-06T04:02:56.332Z,20.50
2018-10-06T04:03:33.490Z,20.40
2018-10-06T04:04:10.948Z,20.50
2018-10-06T04:04:48.275Z,20.40
2018-10-06T04:05:25.841Z,20.40
2018-10-06T04:06:03.068Z,20.40
2018-10-06T04:06:40.602Z,20.50
2018-10-06T04:07:55.677Z,20.40
2018-10-06T04:08:32.992Z,20.50
2018-10-06T04:09:10.234Z,20.50
2018-10-06T04:09:47.872Z,20.40
2018-10-06T04:10:25.384Z,20.40
2018-10-06T04:11:02.909Z,20.50
2018-10-06T04:11:40.312Z,20.50
2018-10-06T04:12:17.863Z,20.40
2018-10-06T04:12:55.200Z,20.50
2018-10-06T04:13:32.513Z,20.40
2018-10-06T04:14:09.917Z,20.40
2018-10-06T04:14:47.105Z,20.50
2018-10-06T04:15:24.364Z,20.50
2018-10-06T04:16:01.583Z,20.50
2018-10-06T04:16:38.835Z,20.40
2018-10-06T04:17:16.170Z,20.40
2018-10-06T04:17:53.598Z,20.40
2018-10-06T04:18:31.024Z,20.40
2018-10-06T04:19:08.573Z,20.50
2018-10-06T04:19:46.019Z,20.50
2018-10-06T04:20:23.465Z,20.50
2018-10-06T04:21:42.534Z,20.50
2018-10-06T04:22:19.924Z,20.40
2018-10-06T04:22:57.404Z,20.40
2018-10-06T04:23:34.956Z,20.50
2018-10-06T04:24:12.445Z,20.40
2018-10-06T04:24:49.937Z,20.40
2018-10-06T04:25:27.428Z,20.50
2018-10-06T04:26:04.996Z,20.50
2018-10-06T04:27:25.055Z,20.40
2018-10-06T04:28:02.463Z,20.40
2018-10-06T04:28:39.895Z,20.40
2018-10-06T04:29:17.228Z,20.40
2018-10-06T04:29:54.546Z,20.40
2018-10-06T04:30:32.095Z,20.50
2018-10-06T04:31:09.535Z,20.40
2018-10-06T04:31:46.937Z,20.50
2018-10-06T04:32:24.379Z,20.40
2018-10-06T04:33:01.857Z,20.50
2018-10-06T04:33:39.366Z,20.40
2018-10-06T04:34:16.817Z,20.50
2018-10-06T04:34:54.027Z,20.40
2018-10-06T04:35:31.377Z,20.40
2018-10-06T04:36:08.736Z,20.40
2018-10-06T04:36:46.219Z,20.40
2018-10-06T04:37:23.507Z,20.40
2018-10-06T04:38:00.918Z,20.40
2018-10-06T04:38:38.323Z,20.40
2018-10-06T04:39:15.868Z,20.40
2018-10-06T04:39:53.338Z,20.40
2018-10-06T04:40:30.824Z,20.40
2018-10-06T04:41:08.341Z,20.40
2018-10-06T04:41:45.812Z,20.40
2018-10-06T04:42:23.088Z,20.40
2018-10-06T04:43:00.658Z,20.40
2018-10-06T04:43:38.078Z,20.40
2018-10-06T04:44:15.604Z,20.40
2018-10-06T04:44:53.049Z,20.40
2018-10-06T04:45:30.338Z,20.40
2018-10-06T04:46:07.788Z,20.40
2018-10-06T04:46:45.310Z,20.40
2018-10-06T04:47:22.769Z,20.40
2018-10-06T04:48:00.264Z,20.40
2018-10-06T04:48:37.528Z,20.40
2018-10-06T04:49:14.921Z,20.40
2018-10-06T04:49:52.159Z,20.40
2018-10-06T04:50:29.453Z,20.40
2018-10-06T04:51:06.684Z,20.40
2018-10-06T04:51:44.202Z,20.40
2018-10-06T04:52:21.596Z,20.40
2018-10-06T04:52:58.917Z,20.40
2018-10-06T04:53:36.404Z,20.40
2018-10-06T04:54:13.662Z,20.40
2018-10-06T04:54:51.202Z,20.40
2018-10-06T04:55:28.729Z,20.40
2018-10-06T04:56:06.149Z,20.40
2018-10-06T04:56:43.409Z,20.40
2018-10-06T04:57:20.871Z,20.40
2018-10-06T04:57:58.320Z,20.40
2018-10-06T04:58:35.602Z,20.40
2018-10-06T04:59:13.201Z,20.40
2018-10-06T04:59:50.841Z,20.40
2018-10-06T05:00:28.394Z,20.40
2018-10-06T05:01:05.766Z,20.40
2018-10-06T05:01:43.246Z,20.40
2018-10-06T05:02:20.521Z,20.40
2018-10-06T05:02:57.880Z,20.40
2018-10-06T05:03:35.241Z,20.40
2018-10-06T05:04:12.647Z,20.40
2018-10-06T05:04:50.072Z,20.40
2018-10-06T05:05:27.401Z,20.40
2018-10-06T05:06:04.814Z,20.40
2018-10-06T05:06:42.145Z,20.40
2018-10-06T05:07:19.542Z,20.40
2018-10-06T05:07:56.843Z,20.40
2018-10-06T05:08:34.165Z,20.40
2018-10-06T05:09:11.651Z,20.40
2018-10-06T05:09:49.026Z,20.40
2018-10-06T05:10:26.523Z,20.40
2018-10-06T05:11:04.122Z,20.40
2018-10-06T05:11:41.631Z,20.40
2018-10-06T05:12:19.143Z,20.40
2018-10-06T05:12:56.625Z,20.40
2018-10-06T05:13:34.005Z,20.40
2018-10-06T05:14:11.404Z,20.40
2018-10-06T05:14:48.645Z,20.40
2018-10-06T05:15:26.113Z,20.40
2018-10-06T05:16:03.673Z,20.40
2018-10-06T05:16:41.059Z,20.40
2018-10-06T05:17:18.322Z,20.40
2018-10-06T05:17:55.765Z,20.40
2018-10-06T05:18:33.335Z,20.40
2018-10-06T05:19:10.823Z,20.40
2018-10-06T05:19:48.352Z,20.40
2018-10-06T05:20:25.952Z,20.40
2018-10-06T05:21:03.663Z,20.40
2018-10-06T05:21:41.023Z,20.40
2018-10-06T05:22:18.343Z,20.40
2018-10-06T05:22:55.885Z,20.40
2018-10-06T05:23:33.380Z,20.40
2018-10-06T05:24:11.035Z,20.40
2018-10-06T05:24:48.401Z,20.40
2018-10-06T05:25:25.639Z,20.40
2018-10-06T05:26:03.204Z,20.40
2018-10-06T05:26:40.477Z,20.40
2018-10-06T05:27:17.738Z,20.40
2018-10-06T05:27:54.989Z,20.40
2018-10-06T05:28:36.124Z,20.40
2018-10-06T05:29:13.465Z,20.40
2018-10-06T05:29:50.974Z,20.40
2018-10-06T05:30:28.515Z,20.40
2018-10-06T05:31:05.944Z,20.40
2018-10-06T05:31:43.419Z,20.40
2018-10-06T05:32:20.917Z,20.40
2018-10-06T05:32:58.129Z,20.40
2018-10-06T05:33:35.504Z,20.40
2018-10-06T05:34:13.234Z,20.40
2018-10-06T05:34:51.732Z,20.40
2018-10-06T05:35:29.168Z,20.40
2018-10-06T05:36:06.565Z,20.40
2018-10-06T05:36:43.854Z,20.40
2018-10-06T05:37:21.306Z,20.40
2018-10-06T05:37:58.773Z,20.40
2018-10-06T05:38:35.952Z,20.40
2018-10-06T05:39:13.226Z,20.40
2018-10-06T05:39:50.564Z,20.40
2018-10-06T05:40:27.854Z,20.40
2018-10-06T05:41:05.384Z,20.40
2018-10-06T05:41:42.787Z,20.40
2018-10-06T05:42:20.047Z,20.40
2018-10-06T05:42:57.454Z,20.50
2018-10-06T05:43:35.007Z,20.40
2018-10-06T05:44:12.355Z,20.40
2018-10-06T05:44:49.542Z,20.40
2018-10-06T05:45:26.958Z,20.40
2018-10-06T05:46:04.462Z,20.40
2018-10-06T05:47:23.518Z,20.40
2018-10-06T05:48:00.960Z,20.40
2018-10-06T05:48:38.569Z,20.40
2018-10-06T05:49:16.331Z,20.40
2018-10-06T05:49:53.604Z,20.40
2018-10-06T05:50:31.300Z,20.40
2018-10-06T05:51:08.806Z,20.40
2018-10-06T05:51:46.319Z,20.40
2018-10-06T05:52:24.009Z,20.40
2018-10-06T05:53:01.298Z,20.40
2018-10-06T05:53:38.548Z,20.40
2018-10-06T05:54:16.052Z,20.40
2018-10-06T05:54:53.327Z,20.40
2018-10-06T05:55:30.807Z,20.40
2018-10-06T05:56:08.386Z,20.40
2018-10-06T05:57:30.839Z,20.50
2018-10-06T05:58:08.196Z,20.40
2018-10-06T05:58:45.404Z,20.40
2018-10-06T05:59:22.923Z,20.40
2018-10-06T06:00:00.385Z,20.40
2018-10-06T06:00:37.675Z,20.40
2018-10-06T06:01:15.132Z,20.40
2018-10-06T06:01:52.636Z,20.40
2018-10-06T06:02:33.448Z,20.40
2018-10-06T06:03:10.929Z,20.40
2018-10-06T06:03:48.215Z,20.40
2018-10-06T06:04:25.684Z,20.40
2018-10-06T06:05:03.255Z,20.40
2018-10-06T06:05:40.681Z,20.40
2018-10-06T06:06:18.140Z,20.40
2018-10-06T06:06:55.598Z,20.40
2018-10-06T06:07:32.824Z,20.40
2018-10-06T06:08:10.352Z,20.40
2018-10-06T06:08:47.712Z,20.40
2018-10-06T06:09:25.051Z,20.40
2018-10-06T06:10:02.627Z,20.40
2018-10-06T06:10:40.101Z,20.40
2018-10-06T06:11:17.442Z,20.40
2018-10-06T06:11:54.838Z,20.40
2018-10-06T06:12:32.335Z,20.40
2018-10-06T06:13:09.561Z,20.40
2018-10-06T06:13:46.756Z,20.40
2018-10-06T06:14:24.063Z,20.40
2018-10-06T06:15:01.355Z,20.40
2018-10-06T06:15:38.922Z,20.40
2018-10-06T06:16:16.341Z,20.40
2018-10-06T06:16:53.820Z,20.40
2018-10-06T06:17:31.240Z,20.50
2018-10-06T06:18:08.701Z,20.40
2018-10-06T06:18:46.021Z,20.40
2018-10-06T06:19:23.449Z,20.40
2018-10-06T06:20:00.724Z,20.40
2018-10-06T06:20:38.180Z,20.40
2018-10-06T06:21:15.363Z,20.50
2018-10-06T06:21:52.645Z,20.50
2018-10-06T06:22:30.065Z,20.50
2018-10-06T06:23:07.348Z,20.40
2018-10-06T06:23:44.755Z,20.40
2018-10-06T06:24:22.255Z,20.50
2018-10-06T06:24:59.549Z,20.50
2018-10-06T06:25:37.072Z,20.50
2018-10-06T06:26:14.540Z,20.40
2018-10-06T06:26:51.908Z,20.50
2018-10-06T06:27:29.427Z,20.50
2018-10-06T06:28:06.930Z,20.50
2018-10-06T06:28:44.384Z,20.50
2018-10-06T06:29:21.588Z,20.50
2018-10-06T06:29:59.078Z,20.50
2018-10-06T06:30:36.467Z,20.50
2018-10-06T06:31:13.901Z,20.50
2018-10-06T06:31:51.307Z,20.50
2018-10-06T06:32:28.746Z,20.50
2018-10-06T06:33:05.977Z,20.50
2018-10-06T06:33:43.465Z,20.40
2018-10-06T06:34:20.660Z,20.50
2018-10-06T06:34:57.906Z,20.50
2018-10-06T06:35:35.420Z,20.50
2018-10-06T06:36:12.965Z,20.50
2018-10-06T06:36:50.369Z,20.50
2018-10-06T06:37:27.554Z,20.50
2018-10-06T06:38:04.994Z,20.50
2018-10-06T06:38:42.396Z,20.50
2018-10-06T06:39:19.875Z,20.50
2018-10-06T06:39:57.355Z,20.50
2018-10-06T06:40:34.781Z,20.50
2018-10-06T06:41:12.025Z,20.50
2018-10-06T06:41:49.242Z,20.50
2018-10-06T06:42:26.571Z,20.50
2018-10-06T06:43:04.045Z,20.50
2018-10-06T06:43:41.274Z,20.50
2018-10-06T06:44:18.858Z,20.50
2018-10-06T06:44:56.304Z,20.50
2018-10-06T06:45:33.663Z,20.50
2018-10-06T06:46:11.115Z,20.50
2018-10-06T06:46:48.485Z,20.50
2018-10-06T06:47:25.870Z,20.50
2018-10-06T06:48:03.295Z,20.50
2018-10-06T06:48:40.517Z,20.50
2018-10-06T06:49:17.923Z,20.50
2018-10-06T06:49:55.104Z,20.60
2018-10-06T06:50:32.548Z,20.60
2018-10-06T06:51:09.728Z,20.60
2018-10-06T06:51:47.033Z,20.60
2018-10-06T06:52:24.325Z,20.60
2018-10-06T06:53:05.533Z,20.60
2018-10-06T06:53:42.729Z,20.60
2018-10-06T06:54:20.007Z,20.60
2018-10-06T06:54:57.290Z,20.60
2018-10-06T06:55:34.676Z,20.60
2018-10-06T06:56:11.995Z,20.60
2018-10-06T06:56:49.216Z,20.60
2018-10-06T06:57:26.412Z,20.60
2018-10-06T06:58:03.690Z,20.60
2018-10-06T06:58:41.087Z,20.60
2018-10-06T06:59:18.549Z,20.60
2018-10-06T06:59:55.908Z,20.70
2018-10-06T07:00:33.352Z,20.70
2018-10-06T07:01:10.889Z,20.70
2018-10-06T07:01:48.205Z,20.70
2018-10-06T07:02:25.428Z,20.70
2018-10-06T07:03:02.829Z,20.70
2018-10-06T07:03:40.137Z,20.70
2018-10-06T07:04:17.361Z,20.70
2018-10-06T07:04:54.871Z,20.70
2018-10-06T07:05:32.390Z,20.80
2018-10-06T07:06:09.872Z,20.70
2018-10-06T07:06:47.142Z,20.70
2018-10-06T07:07:24.651Z,20.70
2018-10-06T07:08:02.206Z,20.70
2018-10-06T07:08:39.635Z,20.70
2018-10-06T07:09:16.796Z,20.80
2018-10-06T07:09:54.022Z,20.70
2018-10-06T07:10:31.259Z,20.80
2018-10-06T07:11:08.744Z,20.70
2018-10-06T07:11:46.168Z,20.70
2018-10-06T07:12:23.434Z,20.70
2018-10-06T07:13:00.926Z,20.70
2018-10-06T07:13:38.246Z,20.70
2018-10-06T07:14:15.513Z,20.70
2018-10-06T07:14:52.975Z,20.70
2018-10-06T07:15:30.217Z,20.70
2018-10-06T07:16:07.508Z,20.70
2018-10-06T07:16:45.003Z,20.70
2018-10-06T07:17:22.525Z,20.70
2018-10-06T07:18:00.047Z,20.70
2018-10-06T07:18:37.597Z,20.70
2018-10-06T07:19:14.962Z,20.70
2018-10-06T07:19:52.205Z,20.70
2018-10-06T07:20:29.649Z,20.70
2018-10-06T07:21:06.832Z,20.70
2018-10-06T07:21:44.228Z,20.70
2018-10-06T07:22:21.538Z,20.70
2018-10-06T07:22:58.775Z,20.70
2018-10-06T07:23:36.205Z,20.70
2018-10-06T07:24:13.526Z,20.70
2018-10-06T07:24:50.927Z,20.70
2018-10-06T07:25:28.259Z,20.70
2018-10-06T07:26:05.807Z,20.70
2018-10-06T07:26:43.316Z,20.60
2018-10-06T07:27:20.831Z,20.60
2018-10-06T07:27:58.256Z,20.60
2018-10-06T07:28:35.906Z,20.60
2018-10-06T07:29:13.444Z,20.70
2018-10-06T07:29:50.657Z,20.70
2018-10-06T07:30:27.888Z,20.60
2018-10-06T07:31:05.158Z,20.60
2018-10-06T07:31:42.581Z,20.70
2018-10-06T07:32:20.035Z,20.70
2018-10-06T07:32:57.308Z,20.70
2018-10-06T07:33:34.688Z,20.70
2018-10-06T07:34:11.940Z,20.70
2018-10-06T07:34:49.127Z,20.70
2018-10-06T07:35:26.409Z,20.70
2018-10-06T07:36:03.889Z,20.70
2018-10-06T07:36:41.383Z,20.70
2018-10-06T07:37:18.960Z,20.70
2018-10-06T07:37:56.391Z,20.80
2018-10-06T07:38:33.752Z,20.80
2018-10-06T07:39:11.189Z,20.80
2018-10-06T07:39:48.543Z,20.80
2018-10-06T07:40:25.895Z,20.80
2018-10-06T07:41:03.131Z,20.80
2018-10-06T07:41:40.391Z,20.80
2018-10-06T07:42:17.861Z,20.80
2018-10-06T07:42:55.444Z,20.80
2018-10-06T07:43:32.980Z,20.80
2018-10-06T07:44:10.387Z,20.90
2018-10-06T07:44:47.745Z,20.90
2018-10-06T07:45:25.382Z,20.90
2018-10-06T07:46:02.813Z,21.00
2018-10-06T07:46:40.258Z,21.10
2018-10-06T07:47:17.744Z,21.10
2018-10-06T07:47:55.022Z,21.10
2018-10-06T07:48:32.515Z,21.20
2018-10-06T07:49:09.920Z,21.20
2018-10-06T07:49:47.174Z,21.20
2018-10-06T07:50:24.472Z,21.20
2018-10-06T07:51:01.924Z,21.30
2018-10-06T07:51:39.313Z,21.30
2018-10-06T07:52:16.620Z,21.30
2018-10-06T07:52:57.321Z,21.30
2018-10-06T07:53:34.663Z,21.40
2018-10-06T07:54:12.114Z,21.40
2018-10-06T07:54:49.527Z,21.40
2018-10-06T07:55:26.828Z,21.50
2018-10-06T07:56:04.254Z,21.50
2018-10-06T07:56:41.529Z,21.50
2018-10-06T07:57:19.145Z,21.50
2018-10-06T07:57:56.423Z,21.50
2018-10-06T07:58:37.236Z,21.50
2018-10-06T07:59:14.468Z,21.60
2018-10-06T07:59:51.989Z,21.60
2018-10-06T08:00:29.478Z,21.60
2018-10-06T08:01:07.066Z,21.60
2018-10-06T08:01:44.590Z,21.70
2018-10-06T08:02:22.077Z,21.70
2018-10-06T08:02:59.548Z,21.80
2018-10-06T08:03:36.923Z,21.80
2018-10-06T08:04:14.138Z,21.80
2018-10-06T08:04:51.437Z,21.80
2018-10-06T08:05:28.879Z,21.90
2018-10-06T08:06:06.250Z,21.90
2018-10-06T08:06:43.810Z,21.90
2018-10-06T08:07:21.010Z,21.90
2018-10-06T08:07:58.415Z,21.90
2018-10-06T08:08:35.813Z,21.90
2018-10-06T08:09:13.261Z,21.90